createdAt,value
2019-01-12T00:00:11.095Z,50.74
2019-01-12T00:01:14.960Z,50.76
2019-01-12T00:02:18.633Z,50.77
2019-01-12T00:03:20.634Z,50.82
2019-01-12T00:04:22.617Z,50.84
2019-01-12T00:05:24.558Z,50.82
2019-01-12T00:06:26.495Z,50.84
2019-01-12T00:07:28.446Z,50.87
2019-01-12T00:08:30.459Z,50.85
2019-01-12T00:09:33.074Z,50.87
2019-01-12T00:10:35.022Z,50.87
2019-01-12T00:11:36.996Z,50.84
2019-01-12T00:12:41.194Z,50.87
2019-01-12T00:13:42.575Z,50.89
2019-01-12T00:14:44.558Z,50.92
2019-01-12T00:15:46.552Z,50.91
2019-01-12T00:16:48.494Z,50.94
2019-01-12T00:17:50.443Z,50.90
2019-01-12T00:18:52.370Z,50.92
2019-01-12T00:19:54.333Z,50.91
2019-01-12T00:20:56.262Z,50.92
2019-01-12T00:21:58.204Z,51.00
2019-01-12T00:23:00.146Z,50.97
2019-01-12T00:24:02.171Z,50.97
2019-01-12T00:25:04.167Z,50.96
2019-01-12T00:26:06.100Z,50.98
2019-01-12T00:27:08.033Z,50.97
2019-01-12T00:28:10.071Z,50.97
2019-01-12T00:29:12.085Z,51.03
2019-01-12T00:30:14.052Z,50.98
2019-01-12T00:31:16.008Z,50.99
2019-01-12T00:32:17.953Z,51.05
2019-01-12T00:33:19.912Z,51.04
2019-01-12T00:34:21.931Z,51.03
2019-01-12T00:35:23.892Z,51.04
2019-01-12T00:36:25.830Z,50.98
2019-01-12T00:37:28.770Z,51.01
2019-01-12T00:38:30.684Z,51.04
2019-01-12T00:39:32.758Z,51.04
2019-01-12T00:40:34.729Z,51.01
2019-01-12T00:41:36.661Z,50.99
2019-01-12T00:42:38.591Z,51.04
2019-01-12T00:43:40.543Z,51.00
2019-01-12T00:44:42.559Z,51.04
2019-01-12T00:45:44.526Z,51.03
2019-01-12T00:46:46.454Z,51.05
2019-01-12T00:47:48.991Z,51.08
2019-01-12T00:48:50.945Z,51.06
2019-01-12T00:49:52.953Z,51.09
2019-01-12T00:50:54.941Z,51.05
2019-01-12T00:51:56.879Z,51.10
2019-01-12T00:52:58.826Z,51.13
2019-01-12T00:54:00.776Z,51.10
2019-01-12T00:55:02.711Z,51.12
2019-01-12T00:56:04.671Z,51.07
2019-01-12T00:57:06.612Z,51.09
2019-01-12T00:58:08.559Z,51.13
2019-01-12T00:59:11.849Z,51.13
2019-01-12T01:00:13.875Z,51.12
2019-01-12T01:01:16.181Z,51.09
2019-01-12T01:02:18.121Z,51.07
2019-01-12T01:03:20.063Z,51.09
2019-01-12T01:04:21.997Z,51.05
2019-01-12T01:05:23.929Z,51.08
2019-01-12T01:06:26.151Z,51.04
2019-01-12T01:07:28.665Z,51.13
2019-01-12T01:08:30.613Z,51.11
2019-01-12T01:09:32.546Z,51.17
2019-01-12T01:10:34.472Z,51.11
2019-01-12T01:11:36.449Z,51.07
2019-01-12T01:12:38.408Z,51.08
2019-01-12T01:13:40.434Z,51.05
2019-01-12T01:14:42.383Z,51.04
2019-01-12T01:15:44.341Z,51.12
2019-01-12T01:16:46.399Z,51.09
2019-01-12T01:17:48.333Z,51.10
2019-01-12T01:18:50.270Z,51.09
2019-01-12T01:19:52.211Z,51.09
2019-01-12T01:20:57.763Z,51.10
2019-01-12T01:21:59.738Z,51.11
2019-01-12T01:23:01.664Z,51.07
2019-01-12T01:24:03.606Z,51.10
2019-01-12T01:25:05.635Z,51.07
2019-01-12T01:26:07.575Z,51.08
2019-01-12T01:27:09.566Z,51.06
2019-01-12T01:28:11.586Z,51.04
2019-01-12T01:29:13.530Z,51.05
2019-01-12T01:30:15.459Z,51.09
2019-01-12T01:31:21.069Z,51.07
2019-01-12T01:32:23.033Z,51.05
2019-01-12T01:33:28.056Z,51.04
2019-01-12T01:34:29.229Z,51.05
2019-01-12T01:35:31.188Z,51.05
2019-01-12T01:36:33.133Z,51.11
2019-01-12T01:37:35.105Z,51.08
2019-01-12T01:38:37.056Z,51.09
2019-01-12T01:39:39.021Z,51.06
2019-01-12T01:40:40.968Z,51.07
2019-01-12T01:41:42.920Z,51.04
2019-01-12T01:42:44.900Z,51.03
2019-01-12T01:43:46.834Z,51.00
2019-01-12T01:44:48.779Z,51.00
2019-01-12T01:45:50.727Z,51.03
2019-01-12T01:46:52.743Z,51.03
2019-01-12T01:47:54.736Z,51.02
2019-01-12T01:48:56.665Z,51.02
2019-01-12T01:49:58.628Z,51.01
2019-01-12T01:51:00.552Z,51.03
2019-01-12T01:52:02.508Z,51.03
2019-01-12T01:53:04.460Z,51.03
2019-01-12T01:54:06.404Z,51.03
2019-01-12T01:55:08.344Z,50.99
2019-01-12T01:56:10.277Z,50.97
2019-01-12T01:57:12.216Z,51.02
2019-01-12T01:58:14.166Z,51.01
2019-01-12T01:59:16.108Z,50.99
2019-01-12T02:00:18.214Z,51.00
2019-01-12T02:01:20.230Z,51.04
2019-01-12T02:02:22.174Z,51.01
2019-01-12T02:03:24.387Z,51.02
2019-01-12T02:04:26.328Z,51.02
2019-01-12T02:05:28.265Z,51.02
2019-01-12T02:06:30.205Z,51.03
2019-01-12T02:07:32.157Z,50.99
2019-01-12T02:08:34.212Z,50.99
2019-01-12T02:09:36.234Z,51.00
2019-01-12T02:10:38.183Z,51.01
2019-01-12T02:11:40.128Z,50.99
2019-01-12T02:12:42.143Z,51.00
2019-01-12T02:13:44.198Z,50.98
2019-01-12T02:14:46.137Z,50.99
2019-01-12T02:15:48.121Z,51.02
2019-01-12T02:16:50.069Z,51.01
2019-01-12T02:17:52.022Z,51.08
2019-01-12T02:18:54.057Z,51.05
2019-01-12T02:19:56.339Z,51.08
2019-01-12T02:20:58.286Z,51.01
2019-01-12T02:22:00.310Z,51.03
2019-01-12T02:23:02.329Z,51.03
2019-01-12T02:24:04.294Z,51.04
2019-01-12T02:25:06.234Z,50.98
2019-01-12T02:26:08.168Z,50.98
2019-01-12T02:27:10.109Z,50.99
2019-01-12T02:28:12.044Z,50.98
2019-01-12T02:29:14.011Z,50.98
2019-01-12T02:30:15.972Z,50.97
2019-01-12T02:31:17.919Z,50.98
2019-01-12T02:32:19.854Z,50.97
2019-01-12T02:33:21.802Z,50.97
2019-01-12T02:34:23.775Z,50.96
2019-01-12T02:35:25.704Z,50.97
2019-01-12T02:36:27.646Z,51.02
2019-01-12T02:37:29.597Z,50.96
2019-01-12T02:38:31.685Z,50.95
2019-01-12T02:39:33.704Z,50.93
2019-01-12T02:40:35.704Z,50.95
2019-01-12T02:41:37.655Z,50.95
2019-01-12T02:42:39.614Z,50.96
2019-01-12T02:43:41.575Z,50.96
2019-01-12T02:44:45.246Z,50.98
2019-01-12T02:45:47.269Z,50.97
2019-01-12T02:46:49.229Z,50.95
2019-01-12T02:47:51.242Z,50.96
2019-01-12T02:48:53.186Z,50.96
2019-01-12T02:49:58.042Z,50.95
2019-01-12T02:51:00.006Z,50.95
2019-01-12T02:52:02.112Z,50.98
2019-01-12T02:53:04.064Z,50.96
2019-01-12T02:54:06.020Z,50.94
2019-01-12T02:55:09.140Z,50.95
2019-01-12T02:56:11.280Z,50.95
2019-01-12T02:57:13.214Z,50.96
2019-01-12T02:58:15.164Z,50.96
2019-01-12T02:59:17.114Z,50.96
2019-01-12T03:00:19.082Z,50.94
2019-01-12T03:01:21.021Z,50.95
2019-01-12T03:02:22.952Z,50.97
2019-01-12T03:03:24.888Z,50.96
2019-01-12T03:04:27.406Z,50.94
2019-01-12T03:05:29.384Z,50.96
2019-01-12T03:06:31.334Z,50.94
2019-01-12T03:07:33.276Z,50.95
2019-01-12T03:08:35.206Z,50.94
2019-01-12T03:09:37.149Z,50.93
2019-01-12T03:10:39.113Z,50.95
2019-01-12T03:11:41.034Z,50.93
2019-01-12T03:12:42.974Z,51.00
2019-01-12T03:13:44.912Z,50.98
2019-01-12T03:14:46.864Z,51.02
2019-01-12T03:15:48.887Z,50.99
2019-01-12T03:16:50.828Z,50.99
2019-01-12T03:17:52.808Z,50.98
2019-01-12T03:18:54.883Z,50.98
2019-01-12T03:19:56.810Z,50.97
2019-01-12T03:20:58.808Z,50.99
2019-01-12T03:22:00.818Z,50.97
2019-01-12T03:23:02.791Z,50.97
2019-01-12T03:24:04.771Z,51.00
2019-01-12T03:25:06.716Z,50.98
2019-01-12T03:26:08.688Z,50.97
2019-01-12T03:27:10.618Z,50.93
2019-01-12T03:28:12.547Z,50.96
2019-01-12T03:29:14.496Z,50.99
2019-01-12T03:30:16.428Z,51.00
2019-01-12T03:31:18.468Z,50.99
2019-01-12T03:32:20.517Z,51.02
2019-01-12T03:33:22.621Z,50.99
2019-01-12T03:34:24.811Z,51.03
2019-01-12T03:35:26.835Z,50.99
2019-01-12T03:36:31.205Z,51.00
2019-01-12T03:37:33.130Z,50.99
2019-01-12T03:38:36.135Z,51.00
2019-01-12T03:39:38.086Z,51.02
2019-01-12T03:40:40.026Z,51.03
2019-01-12T03:41:43.956Z,51.02
2019-01-12T03:42:45.701Z,51.01
2019-01-12T03:43:47.624Z,51.03
2019-01-12T03:44:49.567Z,51.04
2019-01-12T03:45:51.509Z,51.06
2019-01-12T03:46:53.476Z,51.05
2019-01-12T03:47:55.472Z,51.04
2019-01-12T03:48:57.458Z,51.04
2019-01-12T03:49:59.460Z,51.06
2019-01-12T03:51:01.488Z,51.11
2019-01-12T03:52:03.526Z,51.08
2019-01-12T03:53:05.466Z,51.08
2019-01-12T03:54:07.403Z,51.08
2019-01-12T03:55:09.361Z,51.11
2019-01-12T03:56:11.295Z,51.12
2019-01-12T03:57:13.262Z,51.15
2019-01-12T03:58:16.758Z,51.14
2019-01-12T03:59:18.714Z,51.14
2019-01-12T04:00:20.660Z,51.17
2019-01-12T04:01:22.674Z,51.16
2019-01-12T04:02:24.638Z,51.17
2019-01-12T04:03:26.562Z,51.16
2019-01-12T04:04:28.709Z,51.16
2019-01-12T04:05:30.636Z,51.17
2019-01-12T04:06:32.576Z,51.19
2019-01-12T04:07:34.547Z,51.20
2019-01-12T04:08:36.480Z,51.20
2019-01-12T04:09:38.432Z,51.21
2019-01-12T04:10:40.429Z,51.22
2019-01-12T04:11:42.374Z,51.22
2019-01-12T04:12:44.357Z,51.24
2019-01-12T04:13:46.294Z,51.26
2019-01-12T04:14:48.242Z,51.24
2019-01-12T04:15:50.195Z,51.27
2019-01-12T04:16:52.135Z,51.27
2019-01-12T04:17:54.107Z,51.26
2019-01-12T04:18:56.087Z,51.31
2019-01-12T04:19:58.096Z,51.28
2019-01-12T04:21:00.037Z,51.29
2019-01-12T04:22:01.979Z,51.28
2019-01-12T04:23:03.956Z,51.29
2019-01-12T04:24:05.973Z,51.31
2019-01-12T04:25:07.901Z,51.31
2019-01-12T04:26:09.852Z,51.28
2019-01-12T04:27:11.870Z,51.31
2019-01-12T04:28:13.842Z,51.35
2019-01-12T04:29:15.782Z,51.35
2019-01-12T04:30:17.857Z,51.36
2019-01-12T04:31:19.877Z,51.34
2019-01-12T04:32:21.839Z,51.34
2019-01-12T04:33:23.872Z,51.35
2019-01-12T04:34:25.821Z,51.35
2019-01-12T04:35:27.849Z,51.34
2019-01-12T04:36:29.792Z,51.38
2019-01-12T04:37:31.732Z,51.37
2019-01-12T04:38:34.360Z,51.37
2019-01-12T04:39:36.291Z,51.37
2019-01-12T04:40:38.230Z,51.38
2019-01-12T04:41:40.181Z,51.39
2019-01-12T04:42:42.117Z,51.39
2019-01-12T04:43:44.107Z,51.40
2019-01-12T04:44:46.061Z,51.40
2019-01-12T04:45:48.049Z,51.41
2019-01-12T04:46:49.988Z,51.42
2019-01-12T04:47:51.915Z,51.42
2019-01-12T04:48:54.262Z,51.41
2019-01-12T04:49:56.187Z,51.45
2019-01-12T04:50:58.132Z,51.44
2019-01-12T04:52:00.083Z,51.49
2019-01-12T04:53:02.018Z,51.49
2019-01-12T04:54:04.006Z,51.51
2019-01-12T04:55:06.044Z,51.54
2019-01-12T04:56:08.044Z,51.55
2019-01-12T04:57:09.982Z,51.55
2019-01-12T04:58:11.925Z,51.54
2019-01-12T04:59:13.886Z,51.55
2019-01-12T05:00:15.826Z,51.55
2019-01-12T05:01:17.787Z,51.55
2019-01-12T05:02:19.716Z,51.58
2019-01-12T05:03:21.650Z,51.55
2019-01-12T05:04:23.645Z,51.57
2019-01-12T05:05:25.591Z,51.58
2019-01-12T05:06:27.612Z,51.61
2019-01-12T05:07:29.561Z,51.63
2019-01-12T05:08:31.505Z,51.59
2019-01-12T05:09:33.487Z,51.58
2019-01-12T05:10:35.492Z,51.59
2019-01-12T05:11:37.547Z,51.59
2019-01-12T05:12:39.561Z,51.59
2019-01-12T05:13:41.569Z,51.58
2019-01-12T05:14:44.790Z,51.61
2019-01-12T05:15:46.743Z,51.62
2019-01-12T05:16:48.697Z,51.61
2019-01-12T05:17:50.709Z,51.60
2019-01-12T05:18:52.735Z,51.59
2019-01-12T05:19:54.677Z,51.64
2019-01-12T05:20:56.628Z,51.65
2019-01-12T05:21:58.644Z,51.66
2019-01-12T05:23:00.579Z,51.65
2019-01-12T05:24:02.519Z,51.65
2019-01-12T05:25:04.473Z,51.60
2019-01-12T05:26:06.405Z,51.66
2019-01-12T05:27:08.346Z,51.65
2019-01-12T05:28:10.291Z,51.64
2019-01-12T05:29:15.971Z,51.65
2019-01-12T05:30:17.906Z,51.65
2019-01-12T05:31:22.205Z,51.65
2019-01-12T05:32:24.129Z,51.64
2019-01-12T05:33:26.063Z,51.67
2019-01-12T05:34:28.023Z,51.66
2019-01-12T05:35:30.057Z,51.65
2019-01-12T05:36:32.001Z,51.62
2019-01-12T05:37:34.012Z,51.61
2019-01-12T05:38:36.025Z,51.64
2019-01-12T05:39:38.031Z,51.64
2019-01-12T05:40:40.019Z,51.61
2019-01-12T05:41:42.025Z,51.62
2019-01-12T05:42:43.973Z,51.61
2019-01-12T05:43:45.904Z,51.64
2019-01-12T05:44:47.836Z,51.62
2019-01-12T05:45:49.812Z,51.59
2019-01-12T05:46:51.859Z,51.60
2019-01-12T05:47:53.816Z,51.59
2019-01-12T05:48:55.831Z,51.57
2019-01-12T05:49:57.762Z,51.52
2019-01-12T05:51:00.216Z,51.47
2019-01-12T05:52:02.237Z,51.40
2019-01-12T05:53:04.174Z,51.38
2019-01-12T05:54:06.193Z,51.32
2019-01-12T05:55:08.228Z,51.28
2019-01-12T05:56:10.282Z,51.22
2019-01-12T05:57:12.212Z,51.17
2019-01-12T05:58:14.156Z,51.10
2019-01-12T05:59:16.103Z,51.04
2019-01-12T06:00:18.042Z,50.98
2019-01-12T06:01:20.004Z,50.96
2019-01-12T06:02:21.942Z,50.92
2019-01-12T06:03:23.895Z,50.89
2019-01-12T06:04:25.846Z,50.88
2019-01-12T06:05:27.799Z,50.86
2019-01-12T06:06:29.790Z,50.88
2019-01-12T06:07:31.814Z,50.88
2019-01-12T06:08:33.753Z,50.86
2019-01-12T06:09:35.698Z,50.87
2019-01-12T06:10:37.650Z,50.92
2019-01-12T06:11:39.604Z,50.90
2019-01-12T06:12:41.554Z,50.95
2019-01-12T06:13:43.509Z,51.09
2019-01-12T06:14:45.460Z,51.14
2019-01-12T06:15:47.452Z,51.18
2019-01-12T06:16:49.411Z,51.23
2019-01-12T06:17:51.342Z,51.23
2019-01-12T06:18:53.286Z,51.25
2019-01-12T06:19:55.252Z,51.30
2019-01-12T06:20:57.195Z,51.32
2019-01-12T06:21:59.154Z,51.35
2019-01-12T06:23:01.082Z,51.36
2019-01-12T06:24:03.046Z,51.37
2019-01-12T06:25:05.021Z,51.41
2019-01-12T06:26:07.044Z,51.43
2019-01-12T06:27:09.023Z,51.44
2019-01-12T06:28:10.958Z,51.46
2019-01-12T06:29:12.974Z,51.48
2019-01-12T06:30:14.912Z,51.51
2019-01-12T06:31:16.854Z,51.55
2019-01-12T06:32:18.818Z,51.55
2019-01-12T06:33:20.766Z,51.56
2019-01-12T06:34:22.698Z,51.58
2019-01-12T06:35:24.637Z,51.58
2019-01-12T06:36:26.581Z,51.59
2019-01-12T06:37:28.629Z,51.60
2019-01-12T06:38:30.570Z,51.64
2019-01-12T06:39:32.518Z,51.66
2019-01-12T06:40:34.476Z,51.70
2019-01-12T06:41:36.427Z,51.74
2019-01-12T06:42:38.479Z,51.72
2019-01-12T06:43:40.435Z,51.79
2019-01-12T06:44:42.386Z,51.79
2019-01-12T06:45:44.320Z,51.81
2019-01-12T06:46:46.261Z,51.82
2019-01-12T06:47:48.246Z,51.86
2019-01-12T06:48:50.260Z,51.89
2019-01-12T06:49:52.293Z,51.89
2019-01-12T06:50:54.264Z,51.93
2019-01-12T06:51:56.266Z,51.94
2019-01-12T06:52:58.268Z,51.92
2019-01-12T06:54:00.206Z,51.97
2019-01-12T06:55:02.143Z,51.99
2019-01-12T06:56:10.708Z,51.99
2019-01-12T06:57:07.756Z,52.00
2019-01-12T06:58:09.737Z,52.01
2019-01-12T06:59:12.948Z,52.04
2019-01-12T07:00:14.895Z,52.06
2019-01-12T07:01:16.909Z,52.05
2019-01-12T07:02:18.857Z,52.07
2019-01-12T07:03:20.892Z,52.11
2019-01-12T07:04:22.832Z,52.10
2019-01-12T07:05:24.792Z,52.12
2019-01-12T07:06:28.314Z,52.16
2019-01-12T07:07:30.355Z,52.16
2019-01-12T07:08:32.333Z,52.16
2019-01-12T07:09:34.281Z,52.16
2019-01-12T07:10:36.207Z,52.21
2019-01-12T07:11:38.709Z,52.19
2019-01-12T07:12:40.660Z,52.21
2019-01-12T07:13:45.896Z,52.19
2019-01-12T07:14:47.926Z,52.21
2019-01-12T07:15:49.870Z,52.24
2019-01-12T07:16:51.827Z,52.27
2019-01-12T07:17:53.836Z,52.27
2019-01-12T07:18:55.800Z,52.29
2019-01-12T07:19:58.305Z,52.29
2019-01-12T07:21:00.297Z,52.29
2019-01-12T07:22:02.317Z,52.31
2019-01-12T07:23:04.785Z,52.31
2019-01-12T07:24:06.745Z,52.34
2019-01-12T07:25:08.706Z,52.35
2019-01-12T07:26:10.729Z,52.34
2019-01-12T07:27:12.676Z,52.31
2019-01-12T07:28:17.178Z,52.33
2019-01-12T07:29:19.154Z,52.34
2019-01-12T07:30:21.084Z,52.32
2019-01-12T07:31:23.025Z,52.34
2019-01-12T07:32:26.994Z,52.32
2019-01-12T07:33:28.624Z,52.29
2019-01-12T07:34:30.661Z,52.22
2019-01-12T07:35:33.149Z,52.14
2019-01-12T07:36:35.098Z,51.93
2019-01-12T07:37:37.065Z,51.96
2019-01-12T07:38:39.035Z,52.00
2019-01-12T07:39:44.296Z,51.77
2019-01-12T07:40:46.449Z,51.88
2019-01-12T07:41:49.444Z,51.74
2019-01-12T07:42:51.452Z,51.76
2019-01-12T07:43:53.479Z,51.42
2019-01-12T07:44:57.439Z,51.32
2019-01-12T07:45:59.397Z,51.26
2019-01-12T07:47:01.341Z,51.21
2019-01-12T07:48:03.321Z,51.12
2019-01-12T07:49:05.343Z,51.10
2019-01-12T07:50:07.314Z,51.06
2019-01-12T07:51:09.265Z,51.05
2019-01-12T07:52:11.584Z,51.04
2019-01-12T07:53:13.589Z,51.05
2019-01-12T07:54:15.539Z,51.05
2019-01-12T07:55:17.515Z,51.06
2019-01-12T07:56:24.416Z,51.05
2019-01-12T07:57:23.139Z,51.08
2019-01-12T07:58:25.093Z,51.14
2019-01-12T07:59:27.099Z,51.17
2019-01-12T08:00:29.071Z,51.18
2019-01-12T08:01:31.009Z,51.20
2019-01-12T08:02:38.571Z,51.24
2019-01-12T08:03:40.545Z,51.34
2019-01-12T08:04:42.564Z,51.40
2019-01-12T08:05:44.533Z,51.43
2019-01-12T08:06:46.499Z,51.46
2019-01-12T08:07:48.513Z,51.49
2019-01-12T08:08:52.862Z,51.50
2019-01-12T08:09:54.818Z,51.53
2019-01-12T08:10:56.793Z,51.54
2019-01-12T08:11:58.732Z,51.56
2019-01-12T08:13:00.663Z,51.57
2019-01-12T08:14:02.617Z,51.59
2019-01-12T08:15:04.571Z,51.61
2019-01-12T08:16:07.120Z,51.65
2019-01-12T08:17:09.946Z,51.65
2019-01-12T08:18:12.021Z,51.69
2019-01-12T08:19:14.037Z,51.68
2019-01-12T08:20:15.987Z,51.72
2019-01-12T08:21:17.941Z,51.76
2019-01-12T08:22:19.893Z,51.80
2019-01-12T08:23:21.835Z,51.84
2019-01-12T08:24:23.779Z,51.85
2019-01-12T08:25:25.808Z,51.87
2019-01-12T08:26:31.203Z,51.92
2019-01-12T08:27:31.459Z,51.94
2019-01-12T08:28:33.399Z,51.94
2019-01-12T08:29:35.354Z,51.93
2019-01-12T08:30:37.291Z,51.97
2019-01-12T08:31:39.269Z,51.96
2019-01-12T08:32:41.252Z,52.00
2019-01-12T08:33:43.268Z,52.00
2019-01-12T08:34:45.243Z,52.08
2019-01-12T08:35:47.258Z,52.04
2019-01-12T08:36:49.230Z,52.17
2019-01-12T08:37:51.178Z,52.23
2019-01-12T08:38:53.264Z,52.26
2019-01-12T08:39:55.277Z,52.27
2019-01-12T08:40:57.444Z,52.24
2019-01-12T08:41:59.402Z,52.24
2019-01-12T08:43:01.364Z,52.18
2019-01-12T08:44:07.464Z,52.29
2019-01-12T08:45:09.484Z,52.25
2019-01-12T08:46:11.444Z,52.29
2019-01-12T08:47:14.032Z,52.27
2019-01-12T08:48:19.522Z,52.28
2019-01-12T08:49:21.543Z,52.29
2019-01-12T08:50:23.482Z,52.30
2019-01-12T08:51:25.510Z,52.29
2019-01-12T08:52:27.554Z,52.27
2019-01-12T08:53:29.498Z,52.31
2019-01-12T08:54:31.448Z,52.35
2019-01-12T08:55:35.034Z,52.38
2019-01-12T08:56:38.427Z,52.33
2019-01-12T08:57:40.752Z,52.31
2019-01-12T08:58:42.728Z,52.35
2019-01-12T08:59:44.672Z,52.32
2019-01-12T09:00:46.623Z,52.32
2019-01-12T09:01:48.641Z,52.40
2019-01-12T09:02:50.606Z,52.42
2019-01-12T09:03:52.725Z,52.40
2019-01-12T09:04:54.704Z,52.38
2019-01-12T09:05:56.648Z,52.25
2019-01-12T09:06:58.599Z,52.37
2019-01-12T09:08:04.220Z,52.34
2019-01-12T09:09:06.231Z,52.30
2019-01-12T09:10:08.172Z,52.29
2019-01-12T09:11:10.120Z,52.22
2019-01-12T09:12:12.714Z,52.04
2019-01-12T09:13:14.682Z,52.04
2019-01-12T09:14:36.306Z,52.05
2019-01-12T09:15:38.317Z,52.06
2019-01-12T09:16:47.331Z,51.92
2019-01-12T09:17:49.285Z,51.79
2019-01-12T09:18:51.326Z,51.75
2019-01-12T09:19:53.296Z,51.65
2019-01-12T09:20:55.254Z,51.65
2019-01-12T09:21:57.211Z,51.54
2019-01-12T09:22:59.148Z,51.32
2019-01-12T09:24:01.139Z,51.22
2019-01-12T09:25:03.688Z,51.18
2019-01-12T09:26:05.682Z,51.17
2019-01-12T09:27:07.647Z,51.17
2019-01-12T09:28:09.628Z,51.14
2019-01-12T09:29:11.694Z,51.16
2019-01-12T09:30:13.712Z,51.17
2019-01-12T09:31:15.660Z,51.17
2019-01-12T09:32:17.644Z,51.21
2019-01-12T09:33:22.057Z,51.27
2019-01-12T09:34:23.339Z,51.33
2019-01-12T09:35:25.292Z,51.41
2019-01-12T09:36:27.241Z,51.35
2019-01-12T09:37:31.902Z,51.42
2019-01-12T09:38:36.456Z,51.45
2019-01-12T09:39:38.454Z,51.50
2019-01-12T09:40:40.424Z,51.52
2019-01-12T09:41:42.384Z,51.57
2019-01-12T09:42:44.350Z,51.63
2019-01-12T09:43:46.370Z,51.65
2019-01-12T09:44:48.332Z,51.66
2019-01-12T09:45:50.309Z,51.69
2019-01-12T09:46:52.257Z,51.67
2019-01-12T09:47:54.286Z,51.71
2019-01-12T09:48:56.446Z,51.75
2019-01-12T09:49:58.466Z,51.76
2019-01-12T09:51:00.534Z,51.82
2019-01-12T09:52:02.573Z,51.83
2019-01-12T09:53:04.593Z,51.87
2019-01-12T09:54:06.543Z,51.87
2019-01-12T09:55:08.579Z,51.92
2019-01-12T09:56:10.637Z,51.95
2019-01-12T09:57:12.647Z,51.99
2019-01-12T09:58:14.595Z,52.00
2019-01-12T09:59:16.555Z,52.02
2019-01-12T10:00:20.959Z,52.07
2019-01-12T10:01:22.909Z,52.05
2019-01-12T10:02:24.865Z,52.08
2019-01-12T10:03:26.818Z,52.09
2019-01-12T10:04:30.270Z,52.09
2019-01-12T10:05:32.233Z,52.11
2019-01-12T10:06:34.263Z,52.12
2019-01-12T10:07:36.229Z,52.13
2019-01-12T10:08:38.229Z,52.15
2019-01-12T10:09:40.193Z,52.15
2019-01-12T10:10:42.237Z,52.18
2019-01-12T10:11:44.192Z,52.24
2019-01-12T10:12:46.223Z,52.25
2019-01-12T10:13:48.165Z,52.30
2019-01-12T10:14:50.086Z,52.30
2019-01-12T10:15:53.536Z,52.32
2019-01-12T10:16:55.521Z,52.32
2019-01-12T10:17:57.469Z,52.30
2019-01-12T10:18:59.417Z,52.35
2019-01-12T10:20:01.408Z,52.37
2019-01-12T10:21:03.385Z,52.39
2019-01-12T10:22:05.839Z,52.38
2019-01-12T10:23:07.938Z,52.36
2019-01-12T10:24:10.096Z,52.39
2019-01-12T10:25:12.103Z,52.37
2019-01-12T10:26:14.099Z,52.37
2019-01-12T10:27:16.117Z,52.38
2019-01-12T10:28:18.051Z,52.36
2019-01-12T10:29:19.989Z,52.35
2019-01-12T10:30:21.921Z,52.32
2019-01-12T10:31:26.254Z,52.31
2019-01-12T10:32:39.744Z,52.33
2019-01-12T10:33:41.767Z,52.34
2019-01-12T10:34:45.741Z,52.33
2019-01-12T10:35:47.448Z,52.30
2019-01-12T10:36:49.500Z,52.31
2019-01-12T10:37:51.695Z,52.31
2019-01-12T10:38:53.729Z,52.33
2019-01-12T10:39:55.696Z,52.30
2019-01-12T10:40:57.638Z,52.34
2019-01-12T10:41:59.697Z,52.34
2019-01-12T10:43:01.647Z,52.33
2019-01-12T10:44:03.687Z,52.30
2019-01-12T10:45:05.791Z,52.34
2019-01-12T10:46:07.822Z,52.32
2019-01-12T10:47:09.795Z,52.31
2019-01-12T10:48:11.805Z,52.33
2019-01-12T10:49:14.056Z,52.31
2019-01-12T10:50:15.994Z,52.34
2019-01-12T10:51:22.854Z,52.34
2019-01-12T10:52:24.669Z,52.37
2019-01-12T10:53:26.622Z,52.40
2019-01-12T10:54:28.587Z,52.39
2019-01-12T10:55:30.611Z,52.36
2019-01-12T10:56:32.570Z,52.38
2019-01-12T10:57:34.617Z,52.42
2019-01-12T10:58:36.662Z,52.39
2019-01-12T10:59:38.670Z,52.39
2019-01-12T11:00:40.633Z,52.39
2019-01-12T11:01:42.665Z,52.37
2019-01-12T11:02:44.642Z,52.43
2019-01-12T11:03:46.593Z,52.43
2019-01-12T11:04:48.539Z,52.43
2019-01-12T11:05:52.124Z,52.44
2019-01-12T11:06:55.150Z,52.42
2019-01-12T11:07:57.154Z,52.43
2019-01-12T11:08:59.192Z,52.44
2019-01-12T11:10:04.270Z,52.40
2019-01-12T11:11:05.731Z,52.44
2019-01-12T11:12:07.817Z,52.44
2019-01-12T11:13:09.785Z,52.41
2019-01-12T11:14:11.856Z,52.48
2019-01-12T11:15:15.414Z,52.49
2019-01-12T11:16:17.366Z,52.47
2019-01-12T11:17:19.297Z,52.51
2019-01-12T11:18:21.271Z,52.50
2019-01-12T11:19:23.228Z,52.51
2019-01-12T11:20:25.362Z,52.49
2019-01-12T11:21:27.469Z,52.51
2019-01-12T11:22:29.772Z,52.50
2019-01-12T11:23:32.158Z,52.52
2019-01-12T11:24:34.636Z,52.53
2019-01-12T11:25:42.863Z,52.55
2019-01-12T11:26:41.023Z,52.55
2019-01-12T11:27:43.497Z,52.56
2019-01-12T11:28:45.727Z,52.58
2019-01-12T11:29:49.427Z,52.57
2019-01-12T11:30:51.974Z,52.57
2019-01-12T11:31:54.742Z,52.57
2019-01-12T11:32:57.034Z,52.61
2019-01-12T11:33:59.161Z,52.63
2019-01-12T11:35:01.695Z,52.62
2019-01-12T11:36:04.254Z,52.64
2019-01-12T11:37:07.166Z,52.63
2019-01-12T11:38:09.404Z,52.66
2019-01-12T11:39:13.897Z,52.67
2019-01-12T11:40:16.404Z,52.67
2019-01-12T11:41:18.866Z,52.65
2019-01-12T11:42:20.963Z,52.64
2019-01-12T11:43:23.591Z,52.69
2019-01-12T11:44:26.032Z,52.70
2019-01-12T11:45:28.570Z,52.66
2019-01-12T11:46:31.053Z,52.71
2019-01-12T11:47:33.448Z,52.70
2019-01-12T11:48:35.598Z,52.72
2019-01-12T11:49:37.938Z,52.70
2019-01-12T11:50:40.315Z,52.69
2019-01-12T11:51:42.691Z,52.70
2019-01-12T11:52:44.733Z,52.71
2019-01-12T11:53:46.700Z,52.71
2019-01-12T11:54:48.742Z,52.76
2019-01-12T11:55:50.682Z,52.72
2019-01-12T11:56:52.618Z,52.75
2019-01-12T11:57:54.549Z,52.75
2019-01-12T11:58:56.496Z,52.73
2019-01-12T11:59:58.472Z,52.74
2019-01-12T12:01:00.428Z,52.71
2019-01-12T12:02:02.461Z,52.73
2019-01-12T12:03:04.556Z,52.76
2019-01-12T12:04:06.504Z,52.71
2019-01-12T12:05:08.468Z,52.73
2019-01-12T12:06:10.420Z,52.72
2019-01-12T12:07:12.429Z,52.72
2019-01-12T12:08:14.386Z,52.69
2019-01-12T12:09:16.323Z,52.70
2019-01-12T12:10:18.312Z,52.72
2019-01-12T12:11:20.326Z,52.68
2019-01-12T12:12:22.258Z,52.70
2019-01-12T12:13:24.207Z,52.71
2019-01-12T12:14:26.146Z,52.69
2019-01-12T12:15:28.113Z,52.74
2019-01-12T12:16:30.130Z,52.73
2019-01-12T12:17:32.162Z,52.73
2019-01-12T12:18:34.120Z,52.77
2019-01-12T12:19:36.160Z,52.80
2019-01-12T12:20:38.140Z,52.78
2019-01-12T12:21:40.084Z,52.79
2019-01-12T12:22:42.088Z,52.80
2019-01-12T12:23:44.039Z,52.78
2019-01-12T12:24:45.982Z,52.80
2019-01-12T12:25:47.942Z,52.77
2019-01-12T12:26:49.890Z,52.83
2019-01-12T12:27:51.852Z,52.86
2019-01-12T12:28:53.899Z,52.84
2019-01-12T12:29:55.852Z,52.87
2019-01-12T12:30:57.818Z,52.87
2019-01-12T12:31:59.769Z,52.83
2019-01-12T12:33:01.717Z,52.83
2019-01-12T12:34:03.736Z,52.81
2019-01-12T12:35:05.685Z,52.77
2019-01-12T12:36:07.656Z,52.79
2019-01-12T12:37:09.591Z,52.83
2019-01-12T12:38:11.547Z,52.86
2019-01-12T12:39:13.494Z,52.85
2019-01-12T12:40:15.501Z,52.87
2019-01-12T12:41:17.467Z,52.86
2019-01-12T12:42:19.426Z,52.84
2019-01-12T12:43:21.364Z,52.87
2019-01-12T12:44:23.326Z,52.83
2019-01-12T12:45:25.401Z,52.86
2019-01-12T12:46:27.367Z,52.88
2019-01-12T12:47:29.682Z,52.90
2019-01-12T12:48:31.814Z,52.89
2019-01-12T12:49:35.810Z,52.89
2019-01-12T12:50:37.432Z,52.90
2019-01-12T12:51:39.381Z,52.92
2019-01-12T12:52:41.306Z,52.89
2019-01-12T12:53:43.324Z,52.91
2019-01-12T12:54:45.278Z,52.94
2019-01-12T12:55:47.224Z,52.95
2019-01-12T12:56:49.190Z,52.94
2019-01-12T12:57:51.135Z,52.93
2019-01-12T12:58:53.068Z,52.91
2019-01-12T12:59:55.033Z,52.91
2019-01-12T13:00:56.970Z,52.94
2019-01-12T13:01:58.916Z,52.94
2019-01-12T13:03:00.870Z,52.93
2019-01-12T13:04:02.830Z,52.91
2019-01-12T13:05:04.872Z,52.94
2019-01-12T13:06:06.840Z,52.96
2019-01-12T13:07:08.809Z,52.95
2019-01-12T13:08:10.813Z,52.95
2019-01-12T13:09:12.757Z,52.92
2019-01-12T13:10:14.741Z,52.95
2019-01-12T13:11:16.742Z,52.97
2019-01-12T13:12:20.478Z,52.96
2019-01-12T13:13:22.433Z,52.97
2019-01-12T13:14:24.525Z,53.00
2019-01-12T13:15:26.548Z,52.97
2019-01-12T13:16:28.505Z,53.01
2019-01-12T13:17:30.449Z,53.01
2019-01-12T13:18:32.489Z,53.04
2019-01-12T13:19:34.441Z,53.05
2019-01-12T13:20:36.390Z,53.04